Time;durP1;ratioP1;P1;durP2;ratioP2;P2;SDS_P1;SDS_P2;PMS_P1;PMS_P2;Temp;Humidity;BMP_temperature;BMP_pressure;BME280_temperature;BME280_humidity;BME280_pressure;Samples;Min_cycle;Max_cycle;Signal;HPM_P1;HPM_P2
2022/02/21 00:00:53;;;;;;;20.02;3.53;;;;;;;9.78;100.00;98144.09;4994603;28;20315;-81
2022/02/21 00:03:21;;;;;;;9.85;2.78;;;;;;;9.82;100.00;98146.41;4993567;28;20205;-81
2022/02/21 00:05:50;;;;;;;4.88;2.65;;;;;;;9.80;100.00;98142.13;4994102;28;20228;-81
2022/02/21 00:08:17;;;;;;;7.07;2.83;;;;;;;9.82;100.00;98132.13;4994470;28;20536;-80
2022/02/21 00:10:44;;;;;;;7.68;2.30;;;;;;;9.79;100.00;98117.09;4994350;28;20301;-81
2022/02/21 00:13:11;;;;;;;6.63;3.33;;;;;;;9.78;100.00;98117.19;4994220;28;20217;-81
2022/02/21 00:15:38;;;;;;;5.88;2.78;;;;;;;9.84;100.00;98105.97;4993267;28;20276;-82
2022/02/21 00:18:07;;;;;;;6.65;2.50;;;;;;;9.87;100.00;98123.69;4994053;28;20225;-81
2022/02/21 00:20:33;;;;;;;7.22;2.72;;;;;;;9.89;100.00;98081.41;4994609;28;20199;-81
2022/02/21 00:23:02;;;;;;;11.48;2.40;;;;;;;9.86;100.00;98079.84;4994291;28;20261;-81
2022/02/21 00:25:29;;;;;;;6.00;2.60;;;;;;;9.89;100.00;98097.56;4994017;28;20210;-81
2022/02/21 00:27:55;;;;;;;6.25;2.80;;;;;;;9.87;100.00;98076.16;4993480;28;20708;-81
2022/02/21 00:30:22;;;;;;;9.38;2.67;;;;;;;9.86;100.00;98066.41;4994430;28;20204;-82
2022/02/21 00:32:49;;;;;;;8.52;3.45;;;;;;;9.86;100.00;98061.03;4994412;28;20289;-81
2022/02/21 00:35:16;;;;;;;5.78;2.65;;;;;;;9.92;100.00;98054.28;4994086;28;20187;-81
2022/02/21 00:37:42;;;;;;;8.00;2.78;;;;;;;9.93;100.00;98034.50;4993637;28;20229;-82
2022/02/21 00:40:11;;;;;;;10.48;2.53;;;;;;;9.95;100.00;98033.41;4994083;28;20703;-82
2022/02/21 00:42:38;;;;;;;8.60;2.75;;;;;;;9.94;100.00;98033.50;4994407;28;20186;-81
2022/02/21 00:45:07;;;;;;;5.65;2.33;;;;;;;9.98;100.00;98029.59;4994216;28;20278;-81
2022/02/21 00:47:34;;;;;;;5.95;2.45;;;;;;;9.98;100.00;98011.63;4975970;28;20312;-82
2022/02/21 00:50:01;;;;;;;9.10;2.63;;;;;;;10.00;100.00;98006.13;4974326;28;20265;-82
2022/02/21 00:52:29;;;;;;;7.85;2.10;;;;;;;9.97;100.00;97980.34;4974063;28;20297;-82
2022/02/21 00:54:56;;;;;;;6.03;2.67;;;;;;;9.94;100.00;97998.56;4974324;28;20697;-81
2022/02/21 00:57:24;;;;;;;3.60;1.90;;;;;;;9.84;100.00;97985.03;4978550;28;20207;-82
2022/02/21 00:59:50;;;;;;;6.95;2.10;;;;;;;9.75;100.00;97970.47;4993281;28;20231;-82
2022/02/21 01:02:17;;;;;;;4.65;1.70;;;;;;;9.67;100.00;97990.88;4993860;28;20210;-82
2022/02/21 01:04:44;;;;;;;3.30;1.75;;;;;;;9.67;100.00;97959.50;4993451;28;20228;-82
2022/02/21 01:07:10;;;;;;;5.50;2.45;;;;;;;9.67;100.00;97953.25;4981450;28;20291;-82
2022/02/21 01:09:37;;;;;;;4.63;2.15;;;;;;;9.64;100.00;97942.78;4973756;28;20701;-81
2022/02/21 01:12:04;;;;;;;6.88;2.00;;;;;;;9.64;100.00;97938.25;4973693;28;20290;-82
2022/02/21 01:14:32;;;;;;;6.45;2.03;;;;;;;9.61;100.00;97943.88;4974328;28;20293;-82
2022/02/21 01:16:59;;;;;;;5.07;1.90;;;;;;;9.65;100.00;97915.75;4976189;28;20284;-82
2022/02/21 01:19:26;;;;;;;5.55;2.17;;;;;;;9.70;100.00;97905.50;4993298;28;20655;-81
2022/02/21 01:21:52;;;;;;;6.63;2.00;;;;;;;9.30;100.00;98096.72;4993275;28;20308;-82
2022/02/21 01:24:19;;;;;;;13.38;3.13;;;;;;;8.51;100.00;98163.44;4991171;28;20229;-83
2022/02/21 01:26:45;;;;;;;30.77;5.72;;;;;;;4.95;100.00;98168.72;4988138;28;20223;-81
2022/02/21 01:29:12;;;;;;;14.98;3.55;;;;;;;5.04;100.00;98159.31;4975084;28;20211;-82
2022/02/21 01:31:40;;;;;;;12.70;2.95;;;;;;;5.31;100.00;98139.94;4975406;28;20191;-83
2022/02/21 01:34:07;;;;;;;7.70;2.45;;;;;;;5.46;100.00;98154.19;4974500;28;20305;-83
2022/02/21 01:36:33;;;;;;;11.45;2.78;;;;;;;5.42;100.00;98145.50;4975360;28;20557;-82
2022/02/21 01:39:00;;;;;;;20.33;4.05;;;;;;;5.29;100.00;98142.72;4977062;28;20214;-82
2022/02/21 01:41:27;;;;;;;19.13;4.40;;;;;;;5.09;100.00;98119.91;4994406;28;20300;-81
2022/02/21 01:44:02;;;;;;;18.15;4.93;;;;;;;5.10;100.00;98142.94;4993703;28;20641;-82
2022/02/21 01:46:29;;;;;;;19.92;4.53;;;;;;;5.06;100.00;98130.72;4993418;28;20226;-80
2022/02/21 01:48:57;;;;;;;25.05;5.15;;;;;;;5.15;100.00;98134.66;4993270;28;20289;-80
2022/02/21 01:51:24;;;;;;;24.00;6.03;;;;;;;5.07;100.00;98147.63;4992821;28;20646;-79
2022/02/21 01:53:50;;;;;;;11.32;4.60;;;;;;;5.17;100.00;98152.31;4992576;28;20207;-79
2022/02/21 01:56:17;;;;;;;22.25;4.70;;;;;;;5.17;100.00;98154.97;4992479;28;20200;-78
2022/02/21 01:58:44;;;;;;;17.50;4.95;;;;;;;5.26;100.00;98152.72;4992751;28;20584;-79
2022/02/21 02:01:10;;;;;;;16.58;4.32;;;;;;;5.31;100.00;98151.47;4991834;28;20287;-79
2022/02/21 02:03:37;;;;;;;28.45;5.38;;;;;;;5.36;100.00;98178.78;4992742;28;20701;-79
2022/02/21 02:06:07;;;;;;;24.05;6.20;;;;;;;5.44;100.00;98195.16;4992374;28;20210;-79
2022/02/21 02:08:34;;;;;;;15.57;5.60;;;;;;;5.53;100.00;98187.56;4992497;28;20192;-78
2022/02/21 02:11:01;;;;;;;18.65;5.80;;;;;;;5.53;100.00;98145.72;4992078;28;20203;-79
2022/02/21 02:13:28;;;;;;;17.02;4.47;;;;;;;5.45;100.00;98126.66;4992719;28;20535;-78
2022/02/21 02:15:55;;;;;;;23.85;5.30;;;;;;;5.44;100.00;98114.25;4992863;28;20278;-78
2022/02/21 02:18:22;;;;;;;19.38;5.15;;;;;;;5.47;100.00;98114.03;4991687;28;20565;-78
2022/02/21 02:20:49;;;;;;;21.50;5.50;;;;;;;5.56;100.00;98113.50;4996444;28;20277;-78
2022/02/21 02:23:17;;;;;;;21.02;5.22;;;;;;;5.60;100.00;98098.13;4996948;28;20278;-79
2022/02/21 02:25:44;;;;;;;17.40;4.65;;;;;;;5.60;100.00;98101.66;4995563;28;20209;-78
2022/02/21 02:28:10;;;;;;;13.95;4.45;;;;;;;5.54;100.00;98106.50;4996521;28;20230;-77
2022/02/21 02:30:37;;;;;;;19.10;4.15;;;;;;;5.52;100.00;98114.63;4996192;28;20788;-78
2022/02/21 02:33:03;;;;;;;21.15;4.38;;;;;;;5.50;100.00;98121.88;4996174;28;20230;-78
2022/02/21 02:35:32;;;;;;;25.23;4.03;;;;;;;5.43;100.00;98124.06;4996220;28;20238;-79
2022/02/21 02:37:58;;;;;;;10.73;3.25;;;;;;;5.31;100.00;98137.28;4996029;28;20213;-79
2022/02/21 02:40:26;;;;;;;10.98;3.28;;;;;;;5.23;100.00;98111.91;4995655;28;20234;-78
2022/02/21 02:42:53;;;;;;;10.95;3.00;;;;;;;5.18;100.00;98116.69;4996305;28;20648;-79
2022/02/21 02:45:20;;;;;;;12.65;4.43;;;;;;;5.12;100.00;98111.69;4995684;28;20286;-78
2022/02/21 02:47:46;;;;;;;13.45;3.75;;;;;;;5.14;100.00;98119.63;4995234;28;20190;-78
2022/02/21 02:50:13;;;;;;;14.73;3.88;;;;;;;5.11;100.00;98138.47;4996315;28;20209;-78
2022/02/21 02:52:40;;;;;;;15.73;3.60;;;;;;;5.10;100.00;98142.94;4995697;28;20250;-78
2022/02/21 02:55:07;;;;;;;12.57;3.00;;;;;;;5.07;100.00;98147.63;4995840;28;20289;-78
2022/02/21 02:57:35;;;;;;;11.52;3.58;;;;;;;5.05;100.00;98149.50;4995997;28;20203;-80
2022/02/21 03:00:02;;;;;;;10.82;2.80;;;;;;;5.03;100.00;98162.09;4994945;28;20218;-79
2022/02/21 03:02:29;;;;;;;8.70;2.85;;;;;;;5.06;100.00;98181.41;4995516;28;20207;-79
2022/02/21 03:04:55;;;;;;;11.80;3.75;;;;;;;5.00;100.00;98174.66;4996041;28;20187;-79
2022/02/21 03:07:22;;;;;;;19.70;3.58;;;;;;;4.98;100.00;98187.22;4995984;28;20322;-79
2022/02/21 03:09:49;;;;;;;9.82;2.60;;;;;;;5.04;100.00;98180.66;4995422;28;20215;-78
2022/02/21 03:12:15;;;;;;;11.70;3.05;;;;;;;4.99;100.00;98188.06;4995820;28;20661;-79
2022/02/21 03:14:43;;;;;;;12.38;3.55;;;;;;;4.98;100.00;98184.53;4995237;28;20329;-79
2022/02/21 03:17:10;;;;;;;14.70;4.45;;;;;;;4.99;100.00;98210.25;4995301;28;20377;-79
2022/02/21 03:19:36;;;;;;;12.85;3.08;;;;;;;5.02;100.00;98203.91;4994550;28;20222;-79
2022/02/21 03:22:03;;;;;;;14.88;2.75;;;;;;;5.03;100.00;98194.09;4995541;28;20274;-79
2022/02/21 03:24:30;;;;;;;10.23;3.22;;;;;;;5.07;100.00;98207.16;4995414;28;20214;-79
2022/02/21 03:26:57;;;;;;;9.93;2.38;;;;;;;5.07;100.00;98217.84;4995716;28;20210;-79
2022/02/21 03:29:23;;;;;;;9.27;3.50;;;;;;;5.07;100.00;98207.16;4995020;28;20187;-79
2022/02/21 03:31:51;;;;;;;10.55;2.72;;;;;;;5.10;100.00;98219.47;4994914;28;20306;-79
2022/02/21 03:34:18;;;;;;;11.98;2.90;;;;;;;5.07;100.00;98212.50;4995646;28;20283;-80
2022/02/21 03:36:45;;;;;;;5.80;2.53;;;;;;;5.08;100.00;98216.88;4995194;28;20207;-79
2022/02/21 03:39:12;;;;;;;8.82;2.55;;;;;;;5.04;100.00;98204.66;4994711;28;20241;-80
2022/02/21 03:41:39;;;;;;;15.10;2.88;;;;;;;5.07;100.00;98207.16;4995439;28;20188;-82
2022/02/21 03:44:06;;;;;;;9.27;3.28;;;;;;;5.06;100.00;98215.25;4995139;28;20187;-79
2022/02/21 03:46:36;;;;;;;9.13;3.10;;;;;;;5.03;100.00;98236.78;4995741;28;20203;-79
2022/02/21 03:49:04;;;;;;;9.60;2.13;;;;;;;5.00;100.00;98237.81;4994975;28;20198;-80
2022/02/21 03:51:32;;;;;;;9.55;2.60;;;;;;;4.92;100.00;98243.56;4995756;28;20303;-80
2022/02/21 03:53:58;;;;;;;12.98;2.72;;;;;;;4.87;100.00;98250.97;4995526;28;20217;-81
2022/02/21 03:56:25;;;;;;;10.60;2.80;;;;;;;4.92;100.00;98245.38;4995504;28;20206;-81
2022/02/21 03:58:51;;;;;;;7.60;2.83;;;;;;;4.89;100.00;98230.41;4995146;28;20190;-80
2022/02/21 04:01:18;;;;;;;14.52;3.05;;;;;;;4.87;100.00;98237.63;4994998;28;20207;-80
2022/02/21 04:03:45;;;;;;;6.35;1.95;;;;;;;4.90;100.00;98245.47;4995179;28;20298;-81
2022/02/21 04:06:13;;;;;;;9.15;2.60;;;;;;;4.77;100.00;98247.97;4976222;28;20195;-80
2022/02/21 04:12:01;;;;;;;26.30;4.20;;;;;;;4.87;100.00;98266.97;4989125;28;20221;-80
2022/02/21 04:14:28;;;;;;;11.38;3.17;;;;;;;4.84;100.00;98279.59;4995081;28;20553;-81
2022/02/21 04:16:54;;;;;;;9.20;2.70;;;;;;;4.93;100.00;98289.75;4994865;28;20287;-81
2022/02/21 04:19:21;;;;;;;7.53;3.65;;;;;;;5.03;100.00;98300.81;4994145;28;20298;-81
2022/02/21 04:21:49;;;;;;;7.95;2.55;;;;;;;5.00;100.00;98288.50;4994614;28;20234;-81
2022/02/21 04:24:16;;;;;;;10.38;3.05;;;;;;;4.99;100.00;98282.28;4994678;28;20198;-81
2022/02/21 04:26:43;;;;;;;10.15;2.95;;;;;;;4.97;100.00;98289.50;4993848;28;20199;-81
2022/02/21 04:29:09;;;;;;;15.02;2.85;;;;;;;4.98;100.00;98295.72;4993717;28;20199;-80
2022/02/21 04:31:36;;;;;;;10.27;3.40;;;;;;;4.97;100.00;98318.84;4993775;28;20197;-81
2022/02/21 04:34:03;;;;;;;11.38;3.03;;;;;;;4.99;100.00;98294.75;4993712;28;20202;-81
2022/02/21 04:36:30;;;;;;;10.77;2.80;;;;;;;4.95;100.00;98312.75;4994681;28;20278;-81
2022/02/21 04:38:58;;;;;;;14.57;3.55;;;;;;;4.94;100.00;98313.69;4994056;28;20227;-82
2022/02/21 04:41:25;;;;;;;8.82;2.40;;;;;;;4.97;100.00;98312.66;4994300;28;20537;-82
2022/02/21 04:43:53;;;;;;;11.52;3.40;;;;;;;4.96;100.00;98311.81;4992714;28;20282;-82
2022/02/21 04:46:20;;;;;;;17.65;2.63;;;;;;;4.99;100.00;98308.94;4994024;28;20645;-81
2022/02/21 04:48:47;;;;;;;16.27;3.60;;;;;;;5.05;100.00;98306.91;4993193;28;20198;-82
2022/02/21 04:51:13;;;;;;;9.20;2.35;;;;;;;5.13;100.00;98320.66;4993732;28;20293;-82
2022/02/21 04:53:40;;;;;;;7.75;3.33;;;;;;;5.28;100.00;98316.28;4994198;28;20213;-82
2022/02/21 04:56:08;;;;;;;13.20;3.72;;;;;;;5.27;100.00;98314.53;4993807;28;20203;-80
2022/02/21 04:58:35;;;;;;;10.85;3.20;;;;;;;5.30;100.00;98331.25;4993219;28;20190;-82
2022/02/21 05:01:02;;;;;;;11.60;4.03;;;;;;;5.24;100.00;98320.91;4992999;28;20225;-82
2022/02/21 05:03:28;;;;;;;11.57;3.00;;;;;;;5.25;100.00;98322.66;4994098;28;20197;-82
2022/02/21 05:05:55;;;;;;;12.32;4.47;;;;;;;5.27;100.00;98322.53;4993916;28;20613;-81
2022/02/21 05:08:22;;;;;;;11.63;2.80;;;;;;;5.20;100.00;98330.03;4994444;28;20190;-81
2022/02/21 05:10:48;;;;;;;11.77;3.95;;;;;;;5.25;100.00;98311.13;4993716;28;20282;-81
2022/02/21 05:13:16;;;;;;;13.48;3.05;;;;;;;5.27;100.00;98310.09;4993584;28;20197;-82
2022/02/21 05:15:43;;;;;;;16.45;3.65;;;;;;;5.29;99.59;98323.31;4993364;28;20192;-81
2022/02/21 05:18:09;;;;;;;18.70;4.80;;;;;;;5.27;100.00;98330.56;4993262;28;20222;-82
2022/02/21 05:20:36;;;;;;;13.65;3.05;;;;;;;5.25;99.83;98365.34;4993937;28;20293;-83
2022/02/21 05:23:03;;;;;;;23.92;3.97;;;;;;;5.24;99.24;98360.94;4993717;28;20282;-82
2022/02/21 05:25:30;;;;;;;13.25;4.20;;;;;;;5.20;100.00;98367.38;4994180;28;20676;-81
2022/02/21 05:27:56;;;;;;;15.40;4.50;;;;;;;5.14;100.00;98381.94;4993388;28;20232;-82
2022/02/21 05:30:24;;;;;;;17.08;3.97;;;;;;;5.18;99.47;98390.66;4993921;28;20287;-81
2022/02/21 05:32:51;;;;;;;12.57;3.55;;;;;;;5.20;99.65;98354.06;4993717;28;20194;-82
2022/02/21 05:35:18;;;;;;;15.73;3.78;;;;;;;5.19;98.84;98369.22;4992837;28;20628;-81
2022/02/21 05:37:47;;;;;;;15.93;3.17;;;;;;;5.18;100.00;98380.00;4992894;28;20653;-81
2022/02/21 05:40:13;;;;;;;11.57;2.97;;;;;;;5.19;98.24;98376.38;4993626;28;20248;-82
2022/02/21 05:42:40;;;;;;;15.52;3.03;;;;;;;5.18;97.76;98367.50;4993773;28;20253;-82
2022/02/21 05:45:08;;;;;;;9.13;4.05;;;;;;;5.21;96.72;98366.47;4994892;28;20605;-81
2022/02/21 05:47:36;;;;;;;13.90;3.85;;;;;;;5.22;97.08;98361.06;4994286;28;20223;-81
2022/02/21 05:50:02;;;;;;;16.55;3.58;;;;;;;5.22;97.47;98371.72;4990136;28;20225;-82
2022/02/21 05:52:29;;;;;;;13.38;4.15;;;;;;;5.21;99.07;98372.66;4995816;28;20220;-82
2022/02/21 05:54:55;;;;;;;9.38;3.22;;;;;;;5.18;99.13;98364.84;4989268;28;20233;-81
2022/02/21 05:57:22;;;;;;;12.63;2.80;;;;;;;5.16;99.58;98361.38;4994433;28;20191;-82
2022/02/21 05:59:49;;;;;;;20.50;3.30;;;;;;;5.18;100.00;98377.31;4994558;28;20204;-82
2022/02/21 06:02:15;;;;;;;14.55;3.40;;;;;;;5.18;99.93;98354.16;4994673;28;20226;-82
2022/02/21 06:04:43;;;;;;;13.73;3.65;;;;;;;5.22;100.00;98381.50;4994578;28;20627;-82
2022/02/21 06:07:12;;;;;;;12.02;3.30;;;;;;;5.19;100.00;98365.69;4994330;28;20194;-81
2022/02/21 06:09:39;;;;;;;8.80;3.67;;;;;;;5.19;100.00;98374.53;4994050;28;20253;-82
2022/02/21 06:12:06;;;;;;;14.68;3.80;;;;;;;5.25;99.19;98388.50;4995313;28;20280;-83
2022/02/21 06:14:33;;;;;;;21.08;3.75;;;;;;;5.21;98.71;98385.16;4995260;28;20275;-82
2022/02/21 06:17:00;;;;;;;15.38;4.00;;;;;;;5.21;99.84;98385.16;4986413;28;20280;-82
2022/02/21 06:19:26;;;;;;;12.52;3.72;;;;;;;5.22;99.09;98373.50;4994085;28;20741;-82
2022/02/21 06:21:55;;;;;;;16.00;3.35;;;;;;;5.25;99.94;98377.84;4985507;28;20180;-82
2022/02/21 06:24:23;;;;;;;13.57;3.30;;;;;;;5.16;99.35;98387.22;4994738;28;20216;-81
2022/02/21 06:26:49;;;;;;;11.68;3.50;;;;;;;5.19;100.00;98397.72;4991188;28;20569;-81
2022/02/21 06:29:16;;;;;;;11.77;3.63;;;;;;;5.16;100.00;98387.22;4992699;28;20293;-85
2022/02/21 06:31:43;;;;;;;15.20;3.53;;;;;;;5.18;100.00;98402.19;4991578;28;20296;-85
2022/02/21 06:34:10;;;;;;;10.68;3.42;;;;;;;5.26;100.00;98392.91;4992341;28;20199;-84
2022/02/21 06:36:36;;;;;;;21.17;3.90;;;;;;;5.28;100.00;98399.88;4992358;28;20221;-85
2022/02/21 06:39:05;;;;;;;13.52;3.70;;;;;;;5.31;100.00;98385.47;4993669;28;20228;-83
2022/02/21 06:41:31;;;;;;;7.43;3.15;;;;;;;5.33;99.54;98388.94;4994395;28;20715;-83
2022/02/21 06:43:58;;;;;;;18.27;3.40;;;;;;;5.33;100.00;98399.59;4994591;28;20229;-83
2022/02/21 06:46:24;;;;;;;12.68;3.75;;;;;;;5.40;100.00;98400.97;4994051;28;20209;-83
2022/02/21 06:48:52;;;;;;;13.05;3.65;;;;;;;5.49;100.00;98397.78;4992992;28;20286;-83
2022/02/21 06:51:18;;;;;;;8.63;3.65;;;;;;;5.55;98.61;98400.13;4991448;28;20253;-82
2022/02/21 06:53:45;;;;;;;11.35;3.10;;;;;;;5.60;99.42;98392.69;4991602;28;20195;-81
2022/02/21 06:56:13;;;;;;;12.07;2.95;;;;;;;5.70;100.00;98394.84;4993647;28;20290;-82
2022/02/21 06:58:39;;;;;;;14.55;4.20;;;;;;;5.66;99.27;98412.00;4984749;28;20548;-82
2022/02/21 07:01:06;;;;;;;8.95;2.85;;;;;;;5.58;99.12;98394.59;4991093;28;20285;-82
2022/02/21 07:03:33;;;;;;;9.77;3.17;;;;;;;5.67;99.94;98408.38;4988677;28;20193;-81
2022/02/21 07:05:59;;;;;;;17.58;3.15;;;;;;;5.65;100.00;98416.47;4989497;28;20286;-82
2022/02/21 07:08:26;;;;;;;14.07;3.08;;;;;;;5.71;100.00;98393.91;4996768;28;20224;-82
2022/02/21 07:10:52;;;;;;;14.73;4.00;;;;;;;5.72;100.00;98408.97;4990806;28;20704;-82
2022/02/21 07:13:21;;;;;;;16.45;4.35;;;;;;;5.72;100.00;98409.84;4992943;28;20200;-82
2022/02/21 07:15:48;;;;;;;14.70;3.22;;;;;;;5.76;100.00;98415.88;4995212;28;20202;-82
2022/02/21 07:18:15;;;;;;;11.10;3.35;;;;;;;5.82;100.00;98423.53;4995765;28;20642;-82
2022/02/21 07:20:42;;;;;;;16.77;4.40;;;;;;;5.76;100.00;98419.38;4991982;28;20186;-82
2022/02/21 07:23:09;;;;;;;13.85;4.07;;;;;;;5.77;100.00;98420.28;4996167;28;20202;-81
2022/02/21 07:25:35;;;;;;;8.23;3.38;;;;;;;5.83;99.67;98414.56;4994875;28;20524;-81
2022/02/21 07:28:02;;;;;;;13.35;3.35;;;;;;;5.91;99.96;98422.16;4995178;28;20502;-81
2022/02/21 07:30:30;;;;;;;13.20;2.97;;;;;;;5.94;99.77;98427.31;4994426;28;20309;-81
2022/02/21 07:32:57;;;;;;;11.02;3.03;;;;;;;5.89;99.02;98411.53;4993567;28;20528;-82
2022/02/21 07:35:24;;;;;;;7.13;3.05;;;;;;;5.88;99.29;98400.94;4994669;28;20692;-82
2022/02/21 07:37:50;;;;;;;12.88;3.55;;;;;;;5.83;100.00;98415.44;4994333;28;20539;-81
2022/02/21 07:40:17;;;;;;;14.35;3.10;;;;;;;5.85;98.15;98455.41;4993886;28;20754;-81
2022/02/21 07:42:49;;;;;;;11.32;2.55;;;;;;;5.79;98.22;98445.09;4994174;28;20293;-82
2022/02/21 07:45:19;;;;;;;13.80;2.50;;;;;;;5.73;97.12;98438.28;4994371;28;20198;-83
2022/02/21 07:47:48;;;;;;;5.88;2.38;;;;;;;5.76;97.91;98471.97;4993240;28;20918;-81
2022/02/21 07:50:16;;;;;;;6.63;2.42;;;;;;;5.77;98.87;98503.06;4994072;28;20250;-81
2022/02/21 07:52:42;;;;;;;8.80;1.70;;;;;;;5.62;100.00;98494.94;4993598;28;20191;-83
2022/02/21 07:55:10;;;;;;;6.38;1.40;;;;;;;5.62;100.00;98518.97;4992588;28;20231;-83
2022/02/21 07:57:39;;;;;;;1.35;0.98;;;;;;;5.51;100.00;98520.53;4992814;28;20196;-83
2022/02/21 08:00:07;;;;;;;4.10;1.60;;;;;;;5.07;100.00;98529.13;4995547;28;20342;-83
2022/02/21 08:02:34;;;;;;;3.75;1.25;;;;;;;4.86;100.00;98531.09;4994558;28;20282;-81
2022/02/21 08:05:02;;;;;;;1.98;1.20;;;;;;;4.67;100.00;98533.84;4995150;28;20546;-81
2022/02/21 08:07:28;;;;;;;5.65;1.23;;;;;;;4.61;100.00;98551.00;4995030;28;20216;-80
2022/02/21 08:09:55;;;;;;;1.65;1.00;;;;;;;4.36;100.00;98562.94;4995057;28;20198;-80
2022/02/21 08:12:22;;;;;;;2.95;1.67;;;;;;;3.92;100.00;98549.94;4994265;28;20193;-84
2022/02/21 08:14:49;;;;;;;5.70;1.73;;;;;;;3.72;100.00;98561.53;4990837;28;20539;-82
2022/02/21 08:17:15;;;;;;;1.90;1.15;;;;;;;3.70;100.00;98557.22;4978862;28;20198;-82
2022/02/21 08:19:42;;;;;;;3.60;0.93;;;;;;;3.78;100.00;98556.84;5006283;28;20190;-82
2022/02/21 08:22:10;;;;;;;4.55;1.20;;;;;;;3.89;100.00;98549.22;4994994;28;20596;-82
2022/02/21 08:24:37;;;;;;;2.40;1.25;;;;;;;3.97;100.00;98557.72;4993895;28;20674;-83
2022/02/21 08:27:05;;;;;;;3.38;1.52;;;;;;;4.04;100.00;98558.28;4992991;28;20550;-83
2022/02/21 08:29:32;;;;;;;4.35;1.10;;;;;;;4.07;100.00;98558.13;4994255;28;20278;-82
2022/02/21 08:31:59;;;;;;;2.65;1.20;;;;;;;4.05;100.00;98557.34;4993744;28;20311;-82
2022/02/21 08:34:27;;;;;;;3.55;1.55;;;;;;;4.13;100.00;98552.50;4994246;28;20217;-83
2022/02/21 08:36:54;;;;;;;2.90;2.10;;;;;;;4.22;100.00;98560.06;4986850;28;20201;-83
2022/02/21 08:39:22;;;;;;;2.58;1.75;;;;;;;4.27;100.00;98552.69;4991343;28;20229;-83
2022/02/21 08:41:49;;;;;;;2.60;1.60;;;;;;;4.39;100.00;98540.59;4974614;28;20571;-83
2022/02/21 08:44:15;;;;;;;6.38;1.60;;;;;;;4.47;100.00;98543.72;4975138;28;20666;-85
2022/02/21 08:46:42;;;;;;;3.03;1.85;;;;;;;4.57;100.00;98542.31;4973635;28;20212;-83
2022/02/21 08:49:09;;;;;;;8.38;2.00;;;;;;;4.68;100.00;98544.44;4974782;28;20245;-82
2022/02/21 08:51:36;;;;;;;6.75;1.88;;;;;;;4.80;100.00;98542.94;4974630;28;20633;-82
2022/02/21 08:54:03;;;;;;;8.68;2.28;;;;;;;4.86;100.00;98521.31;4974746;28;20197;-80
2022/02/21 08:56:31;;;;;;;5.20;1.60;;;;;;;4.88;100.00;98532.72;4974369;28;20208;-81
2022/02/21 08:58:59;;;;;;;4.60;2.00;;;;;;;5.02;100.00;98537.38;4974326;28;20200;-79
2022/02/21 09:01:25;;;;;;;6.40;2.35;;;;;;;5.07;100.00;98532.66;4973984;28;20198;-82
2022/02/21 09:03:52;;;;;;;9.95;2.60;;;;;;;5.25;100.00;98517.47;4974081;28;20539;-82
2022/02/21 09:06:19;;;;;;;10.00;2.65;;;;;;;5.39;100.00;98522.06;4974643;28;20192;-83
2022/02/21 09:08:46;;;;;;;4.93;1.70;;;;;;;5.50;100.00;98514.34;4973653;28;20206;-83
2022/02/21 09:11:12;;;;;;;5.50;2.00;;;;;;;5.61;100.00;98503.06;4974034;28;20243;-82
2022/02/21 09:13:40;;;;;;;6.38;1.90;;;;;;;5.68;100.00;98514.28;4973795;28;20710;-83
2022/02/21 09:16:07;;;;;;;7.88;2.08;;;;;;;5.68;100.00;98501.78;4973578;28;20646;-82
2022/02/21 09:18:34;;;;;;;11.95;2.00;;;;;;;5.81;100.00;98512.63;4974088;28;20722;-80
2022/02/21 09:21:03;;;;;;;7.20;2.25;;;;;;;5.84;100.00;98507.97;4970336;28;20246;-82
2022/02/21 09:23:30;;;;;;;10.90;2.25;;;;;;;6.20;100.00;98504.19;4973226;28;20195;-82
2022/02/21 09:25:56;;;;;;;8.52;2.30;;;;;;;6.33;100.00;98504.34;4968969;28;20195;-82
2022/02/21 09:28:23;;;;;;;5.72;2.15;;;;;;;6.35;100.00;98505.09;4976121;28;20202;-83
2022/02/21 09:30:55;;;;;;;7.38;2.17;;;;;;;6.58;100.00;98502.88;4978194;28;20291;-81
2022/02/21 09:33:22;;;;;;;7.72;2.92;;;;;;;6.62;100.00;98491.91;4975579;28;20188;-82
2022/02/21 09:35:48;;;;;;;10.68;3.35;;;;;;;6.65;100.00;98485.53;4984543;28;20650;-82
2022/02/21 09:38:15;;;;;;;6.75;2.08;;;;;;;6.48;100.00;98479.38;4980445;28;20196;-81
2022/02/21 09:40:42;;;;;;;10.50;3.10;;;;;;;6.66;100.00;98492.59;4965836;28;20236;-81
2022/02/21 09:43:09;;;;;;;7.97;3.10;;;;;;;6.80;100.00;98476.56;4973398;28;20199;-80
2022/02/21 09:45:35;;;;;;;11.27;2.70;;;;;;;7.03;98.18;98477.00;4974735;28;20194;-81
2022/02/21 09:48:04;;;;;;;11.35;2.63;;;;;;;7.42;95.94;98497.75;4963362;28;20194;-80
2022/02/21 09:50:30;;;;;;;8.45;2.38;;;;;;;7.65;92.38;98490.94;4979437;28;20221;-81
2022/02/21 09:53:01;;;;;;;5.47;1.75;;;;;;;7.30;88.47;98504.75;4978064;28;20288;-81
2022/02/21 09:55:29;;;;;;;10.48;3.20;;;;;;;7.33;88.54;98487.63;4975294;28;20282;-82
2022/02/21 09:57:55;;;;;;;10.25;2.85;;;;;;;7.25;86.50;98484.56;4972314;28;20214;-82
2022/02/21 10:00:24;;;;;;;8.35;2.38;;;;;;;7.13;87.73;98501.41;4974501;28;20262;-81
2022/02/21 10:02:51;;;;;;;11.65;2.40;;;;;;;7.37;87.36;98491.84;4977852;28;20219;-81
2022/02/21 10:05:22;;;;;;;8.50;2.40;;;;;;;7.42;87.39;98505.78;4974220;28;20192;-81
2022/02/21 10:07:50;;;;;;;12.88;3.25;;;;;;;7.21;86.54;98499.97;4973214;28;20207;-81
2022/02/21 10:10:20;;;;;;;8.95;2.58;;;;;;;7.30;85.34;98512.78;4973103;28;20279;-81
2022/02/21 10:12:49;;;;;;;4.88;1.80;;;;;;;7.41;84.87;98503.22;4972436;28;20880;-80
2022/02/21 10:15:18;;;;;;;7.57;2.47;;;;;;;7.55;84.99;98508.53;4972938;28;20380;-80
2022/02/21 10:17:46;;;;;;;5.70;2.03;;;;;;;7.78;83.26;98491.03;4973665;28;20337;-81
2022/02/21 10:20:13;;;;;;;9.60;2.58;;;;;;;7.57;82.69;98498.59;4973026;28;20200;-81
2022/02/21 10:23:00;;;;;;;9.98;2.30;;;;;;;7.64;84.64;98502.63;4973542;28;20702;-82
2022/02/21 10:25:27;;;;;;;10.40;1.88;;;;;;;7.69;84.21;98508.56;4972556;28;20194;-81
2022/02/21 10:27:54;;;;;;;6.93;2.72;;;;;;;7.46;84.21;98498.41;4973283;28;20207;-81
2022/02/21 10:30:21;;;;;;;9.43;3.03;;;;;;;7.42;85.73;98495.09;4980821;28;20572;-80
2022/02/21 10:32:50;;;;;;;8.50;2.78;;;;;;;7.60;86.16;98505.56;4977868;28;20351;-81
2022/02/21 10:35:20;;;;;;;8.25;2.20;;;;;;;7.62;84.53;98512.59;4971706;28;20882;-81
2022/02/21 10:37:50;;;;;;;15.00;2.55;;;;;;;7.76;82.31;98509.03;4973104;28;20196;-80
2022/02/21 10:40:19;;;;;;;6.40;2.10;;;;;;;7.93;80.82;98503.41;4982437;28;20282;-80
2022/02/21 10:43:01;;;;;;;8.93;2.38;;;;;;;8.28;77.30;98491.38;4993282;28;20323;-79
2022/02/21 10:45:30;;;;;;;10.48;2.60;;;;;;;8.19;77.28;98510.75;4992368;28;20188;-78
2022/02/21 10:48:02;;;;;;;7.18;2.22;;;;;;;7.86;81.57;98510.13;4993883;28;20282;-79
2022/02/21 10:50:30;;;;;;;5.90;2.40;;;;;;;7.69;83.11;98505.88;4994092;28;20584;-79
2022/02/21 10:52:58;;;;;;;7.82;2.42;;;;;;;7.35;83.94;98503.56;4995058;28;20233;-80
2022/02/21 10:55:32;;;;;;;5.15;2.10;;;;;;;7.40;86.97;98510.38;4994340;28;20551;-79
2022/02/21 10:57:59;;;;;;;4.25;1.90;;;;;;;7.15;89.81;98505.69;4994131;28;20187;-78
2022/02/21 11:00:26;;;;;;;10.45;2.65;;;;;;;7.25;90.04;98508.66;4994128;28;20637;-79
2022/02/21 11:02:53;;;;;;;8.45;2.75;;;;;;;7.41;90.40;98505.88;4993984;28;20275;-79
2022/02/21 11:05:20;;;;;;;5.13;2.40;;;;;;;7.25;92.79;98514.00;4994725;28;20203;-80
2022/02/21 11:07:49;;;;;;;6.63;2.17;;;;;;;7.29;93.45;98511.03;5015789;28;20187;-81
2022/02/21 11:10:17;;;;;;;7.88;2.65;;;;;;;7.22;94.33;98501.69;5015579;28;20229;-81
2022/02/21 11:12:45;;;;;;;5.00;2.08;;;;;;;7.24;94.78;98486.38;5010129;28;20219;-81
2022/02/21 11:15:12;;;;;;;6.85;2.72;;;;;;;7.35;95.31;98498.22;4997788;28;20327;-81
2022/02/21 11:17:39;;;;;;;11.38;2.95;;;;;;;7.45;94.50;98489.53;4995407;28;20210;-81
2022/02/21 11:20:09;;;;;;;6.28;2.40;;;;;;;7.72;92.16;98486.91;4994250;28;20698;-80
2022/02/21 11:22:36;;;;;;;11.43;2.55;;;;;;;7.62;90.72;98490.25;4996888;28;20227;-82
2022/02/21 11:25:19;;;;;;;5.97;2.30;;;;;;;7.66;90.99;98481.94;4995677;28;20187;-81
2022/02/21 11:27:56;;;;;;;6.45;2.67;;;;;;;7.77;90.45;98477.72;4995591;28;20200;-82
2022/02/21 11:30:25;;;;;;;4.63;1.98;;;;;;;7.59;89.16;98469.03;4995269;28;20278;-81
2022/02/21 11:33:03;;;;;;;5.95;2.60;;;;;;;7.50;89.72;98468.66;4991958;28;20210;-80
2022/02/21 11:35:31;;;;;;;10.75;2.75;;;;;;;7.65;89.22;98492.78;4995379;28;20218;-79